Airfield :
LOGIN :

Register | Disclaimer

   EN    FR    IT 

 










Legend :    VFR   Marginal VFR   IFR   Intensive IFR   Very Intensive IFR
Visi :
Ceiling :
>= 8 km
>= 3000ft
5 to 8 km
1000 to 3000 ft
1500m to 5 km
500 to 1000 ft
800 to 1500m
200 to 500 ft
< 800m
< 200 ft
Symbols :   Thunderstorms  Fog  Heavy snow  Heavy precipitations  Wind > 20 kt
SIGMETs :     Misc.  Thunderstorms  Icing  Turbulence  Mountain Waves  Volcanic Ashes






- Airport Elevation : 814 ft
- IATA code : TLM


DAON - Zenata - Tlemcen

CURRENT METAR :
  • 301130Z VRB02KT CAVOK 10/03 Q1027

EXPIRED METARs :
  • 301100Z VRB02KT CAVOK 09/04 Q1027
  • 301030Z 02003KT CAVOK 08/04 Q1026
  • 301000Z VRB02KT CAVOK 08/04 Q1026
  • 300930Z 00000KT CAVOK 07/05 Q1026
  • 300900Z 00000KT CAVOK 05/04 Q1026

TAF TAF DAON
Valid from the 30 at 06:00 until the 31 at 06:00 UTC


300500Z 3006/3106 VRB02KT 9999 SCT020
PROB40
TEMPO 3006/3008 4000 BR SCT010
BECMG 3010/3012 02010KT 9999 FEW026



MET'MAP, your aeronautical weather chart ! - Copyright ORBIFLY December 2007 - Disclaimer

ORBIFLY MET'MAP TEAM :

Programming & Development : Alexandra Zaïnal
Original concept : Baudouin d'Aumeries
Technical & hardware support : Manuel Goepfert
Assistance : Marc-Olivier Méhu




SOURCES & CREDITS :

   NOAA